Time;durP1;ratioP1;P1;durP2;ratioP2;P2;SDS_P1;SDS_P2;PMS_P1;PMS_P2;Temp;Humidity;BMP_temperature;BMP_pressure;BME280_temperature;BME280_humidity;BME280_pressure;Samples;Min_cycle;Max_cycle;Signal;HPM_P1;HPM_P2
2024/04/17 00:00:44;;;;;;;;;;;;;;;24.09;43.99;93486.59;5205353;27;7704;-57
2024/04/17 00:03:11;;;;;;;;;;;;;;;24.07;43.89;93485.63;5234335;27;7396;-57
2024/04/17 00:06:11;;;;;;;;;;;;;;;24.08;43.80;93485.09;5235553;27;8625;-57
2024/04/17 00:08:39;;;;;;;;;;;;;;;23.98;43.63;93467.50;5248289;27;7788;-57
2024/04/17 00:11:43;;;;;;;;;;;;;;;24.05;43.68;93471.66;5254946;27;7119;-57
2024/04/17 00:14:32;;;;;;;;;;;;;;;24.04;44.10;93464.66;5305008;27;9008;-57
2024/04/17 00:17:02;;;;;;;;;;;;;;;23.99;43.72;93466.22;5257312;27;9184;-57
2024/04/17 00:19:33;;;;;;;;;;;;;;;24.01;43.80;93465.72;5280671;27;7087;-57
2024/04/17 00:22:01;;;;;;;;;;;;;;;23.92;43.74;93447.63;5300065;26;7598;-57
2024/04/17 00:24:31;;;;;;;;;;;;;;;23.98;44.05;93453.75;5305367;27;7559;-60
2024/04/17 00:27:00;;;;;;;;;;;;;;;23.97;44.00;93460.50;5301612;27;7217;-60
2024/04/17 00:29:29;;;;;;;;;;;;;;;23.90;44.16;93455.63;5266767;26;7466;-60
2024/04/17 00:31:59;;;;;;;;;;;;;;;23.93;44.07;93454.56;5381274;26;7108;-60
2024/04/17 00:34:25;;;;;;;;;;;;;;;23.87;44.10;93448.44;5424113;26;7469;-60
2024/04/17 00:37:23;;;;;;;;;;;;;;;23.92;43.91;93453.09;5426221;26;7153;-61
2024/04/17 00:40:17;;;;;;;;;;;;;;;23.92;43.82;93453.09;5412668;26;9267;-60
2024/04/17 00:42:45;;;;;;;;;;;;;;;23.91;43.99;93451.59;5447988;26;9208;-60
2024/04/17 00:45:23;;;;;;;;;;;;;;;23.91;44.00;93448.88;5467392;26;7587;-60
2024/04/17 00:47:50;;;;;;;;;;;;;;;23.82;44.10;93435.50;5421000;26;7009;-60
2024/04/17 00:50:25;;;;;;;;;;;;;;;23.81;44.40;93434.78;5451496;26;7600;-60
2024/04/17 00:52:57;;;;;;;;;;;;;;;23.80;43.74;93436.03;5403749;26;7109;-60
2024/04/17 00:55:28;;;;;;;;;;;;;;;23.79;44.00;93434.53;5412718;26;7653;-60
2024/04/17 00:57:56;;;;;;;;;;;;;;;23.84;44.39;93441.97;5415123;26;7307;-60
2024/04/17 01:00:36;;;;;;;;;;;;;;;23.78;43.81;93438.56;5448350;26;8915;-61
2024/04/17 01:03:06;;;;;;;;;;;;;;;23.77;44.33;93434.31;5385755;26;7038;-60
2024/04/17 01:05:43;;;;;;;;;;;;;;;23.76;44.25;93429.38;5426146;26;7336;-61
2024/04/17 01:08:13;;;;;;;;;;;;;;;23.77;44.18;93441.84;5415777;26;6954;-60
2024/04/17 01:10:41;;;;;;;;;;;;;;;23.74;44.14;93426.41;5427405;26;9602;-60
2024/04/17 01:13:16;;;;;;;;;;;;;;;23.73;44.28;93431.16;5419829;26;8000;-61
2024/04/17 01:15:57;;;;;;;;;;;;;;;23.79;43.98;93439.31;5412120;26;7286;-61
2024/04/17 01:18:28;;;;;;;;;;;;;;;23.77;44.21;93419.88;5407353;26;7391;-61
2024/04/17 01:21:05;;;;;;;;;;;;;;;23.72;43.97;93412.47;5419361;26;7126;-60
2024/04/17 01:23:31;;;;;;;;;;;;;;;23.70;44.32;93407.50;5411690;26;7510;-60
2024/04/17 01:26:00;;;;;;;;;;;;;;;23.74;44.13;93416.16;5409776;26;7374;-60
2024/04/17 01:28:34;;;;;;;;;;;;;;;23.74;44.32;93412.69;5401960;26;7355;-60
2024/04/17 01:31:00;;;;;;;;;;;;;;;23.71;44.39;93416.44;5410933;26;7383;-60
2024/04/17 01:33:37;;;;;;;;;;;;;;;23.68;44.19;93409.28;5381802;26;7098;-60
2024/04/17 01:36:23;;;;;;;;;;;;;;;23.72;44.12;93417.94;5411744;26;7420;-60
2024/04/17 01:38:50;;;;;;;;;;;;;;;23.71;44.15;93416.44;5381686;26;7607;-60
2024/04/17 01:41:30;;;;;;;;;;;;;;;23.64;44.15;93406.09;5381219;26;9656;-60
2024/04/17 01:43:59;;;;;;;;;;;;;;;23.66;44.59;93409.78;5412172;26;7252;-60
2024/04/17 01:46:45;;;;;;;;;;;;;;;23.61;44.29;93396.91;5411017;26;7825;-60
2024/04/17 01:49:36;;;;;;;;;;;;;;;23.67;44.53;93407.78;5411435;26;8614;-60
2024/04/17 01:52:06;;;;;;;;;;;;;;;23.63;44.72;93399.09;5411770;26;7361;-60
2024/04/17 01:54:42;;;;;;;;;;;;;;;23.49;44.66;93375.63;5411078;26;7152;-60
2024/04/17 01:57:21;;;;;;;;;;;;;;;23.64;44.32;93400.59;5411847;26;7075;-60
2024/04/17 01:59:47;;;;;;;;;;;;;;;23.58;44.34;93397.19;5412060;26;7252;-60
2024/04/17 02:02:32;;;;;;;;;;;;;;;23.65;44.53;93402.06;5410085;26;9436;-60
2024/04/17 02:04:59;;;;;;;;;;;;;;;23.50;44.00;93377.84;5386806;26;7271;-60
2024/04/17 02:07:56;;;;;;;;;;;;;;;23.62;44.40;93398.34;5397288;26;7013;-60
2024/04/17 02:10:38;;;;;;;;;;;;;;;23.61;44.18;93396.16;5315146;26;7242;-60
2024/04/17 02:13:30;;;;;;;;;;;;;;;23.61;44.65;93399.63;5303928;27;7055;-60
2024/04/17 02:16:06;;;;;;;;;;;;;;;23.53;44.73;93400.75;5303352;27;9086;-60
2024/04/17 02:18:49;;;;;;;;;;;;;;;23.61;44.41;93407.88;5335925;26;7801;-61
2024/04/17 02:21:18;;;;;;;;;;;;;;;23.50;44.32;93391.56;5373440;26;7240;-60
2024/04/17 02:23:47;;;;;;;;;;;;;;;23.55;44.30;93398.22;5349049;26;7400;-60
2024/04/17 02:26:13;;;;;;;;;;;;;;;23.47;44.24;93395.34;5321550;26;7187;-60
2024/04/17 02:28:39;;;;;;;;;;;;;;;23.45;44.59;93400.59;5309551;26;7475;-60
2024/04/17 02:31:05;;;;;;;;;;;;;;;23.47;44.34;93397.34;5337518;26;7368;-60
2024/04/17 02:33:37;;;;;;;;;;;;;;;23.50;44.22;93407.28;5332295;26;7643;-60
2024/04/17 02:36:06;;;;;;;;;;;;;;;23.44;44.58;93398.38;5314980;26;7450;-60
2024/04/17 02:38:47;;;;;;;;;;;;;;;23.50;44.46;93401.78;5349471;26;7713;-60
2024/04/17 02:41:25;;;;;;;;;;;;;;;23.42;44.53;93398.91;5337863;26;6962;-60
2024/04/17 02:44:12;;;;;;;;;;;;;;;23.51;44.54;93414.25;5349588;26;7363;-65
2024/04/17 02:46:38;;;;;;;;;;;;;;;23.51;44.64;93406.03;5376528;26;7243;-66
2024/04/17 02:49:10;;;;;;;;;;;;;;;23.50;44.55;93413.53;5414064;26;7144;-66
2024/04/17 02:51:46;;;;;;;;;;;;;;;23.46;44.51;93412.34;5388458;26;7796;-66
2024/04/17 02:54:16;;;;;;;;;;;;;;;23.42;44.19;93407.16;5382142;26;8822;-57
2024/04/17 02:56:59;;;;;;;;;;;;;;;23.37;44.52;93404.47;5416043;26;7670;-57
2024/04/17 02:59:36;;;;;;;;;;;;;;;23.42;44.51;93418.13;5450316;26;7097;-57
2024/04/17 03:02:15;;;;;;;;;;;;;;;23.40;44.61;93411.66;5433052;26;7227;-57
2024/04/17 03:04:59;;;;;;;;;;;;;;;23.39;44.37;93413.66;5429442;26;7060;-57
2024/04/17 03:07:35;;;;;;;;;;;;;;;23.38;44.48;93416.94;5439540;26;7071;-57
2024/04/17 03:10:06;;;;;;;;;;;;;;;23.42;44.07;93417.38;5388748;26;7217;-57
2024/04/17 03:13:04;;;;;;;;;;;;;;;23.42;44.55;93414.63;5445505;26;7149;-57
2024/04/17 03:15:39;;;;;;;;;;;;;;;23.41;44.33;93418.63;5286024;26;7913;-57
2024/04/17 03:18:18;;;;;;;;;;;;;;;23.33;44.39;93410.25;5306652;26;7343;-57
2024/04/17 03:21:01;;;;;;;;;;;;;;;23.37;44.24;93415.44;5340635;26;7380;-57
2024/04/17 03:23:28;;;;;;;;;;;;;;;23.38;44.77;93412.16;5336177;26;8571;-57
2024/04/17 03:26:01;;;;;;;;;;;;;;;23.36;44.45;93408.50;5318393;26;7058;-57
2024/04/17 03:28:32;;;;;;;;;;;;;;;23.30;44.61;93396.78;5335380;26;7139;-56
2024/04/17 03:31:00;;;;;;;;;;;;;;;23.31;44.47;93403.78;5328905;26;7236;-57
2024/04/17 03:33:28;;;;;;;;;;;;;;;23.25;44.59;93403.84;5311080;26;7672;-57
2024/04/17 03:36:03;;;;;;;;;;;;;;;23.31;44.53;93401.03;5340341;26;7529;-57
2024/04/17 03:38:38;;;;;;;;;;;;;;;23.32;44.62;93411.47;5323404;26;7060;-57
2024/04/17 03:41:07;;;;;;;;;;;;;;;23.28;44.64;93408.28;5271222;27;8067;-57
2024/04/17 03:43:36;;;;;;;;;;;;;;;23.24;44.32;93399.63;5307003;26;8987;-57
2024/04/17 03:46:04;;;;;;;;;;;;;;;23.31;44.49;93412.75;5279421;26;7510;-57
2024/04/17 03:48:38;;;;;;;;;;;;;;;23.25;44.76;93404.59;5325999;26;7979;-57
2024/04/17 03:51:13;;;;;;;;;;;;;;;23.29;44.66;93409.03;5292302;26;7636;-57
2024/04/17 03:53:44;;;;;;;;;;;;;;;23.20;44.89;93397.19;5354992;26;7297;-57
2024/04/17 03:56:10;;;;;;;;;;;;;;;23.25;44.64;93410.06;5368704;26;7758;-57
2024/04/17 03:58:42;;;;;;;;;;;;;;;23.27;44.81;93409.56;5425370;26;9528;-56
2024/04/17 04:01:14;;;;;;;;;;;;;;;23.29;44.73;93411.78;5373394;26;7040;-57
2024/04/17 04:03:43;;;;;;;;;;;;;;;23.30;44.83;93410.50;5407032;26;7030;-61
2024/04/17 04:06:10;;;;;;;;;;;;;;;23.19;44.50;93406.66;5422668;26;8816;-61
2024/04/17 04:08:39;;;;;;;;;;;;;;;23.18;44.45;93405.16;5436076;26;7302;-61
2024/04/17 04:11:11;;;;;;;;;;;;;;;23.20;44.77;93415.63;5367518;26;7738;-61
2024/04/17 04:13:38;;;;;;;;;;;;;;;23.13;44.53;93411.47;5395765;26;7421;-59
2024/04/17 04:16:04;;;;;;;;;;;;;;;23.22;44.56;93421.34;5416877;26;9164;-61
2024/04/17 04:18:31;;;;;;;;;;;;;;;23.13;44.34;93414.22;5407461;26;7052;-61
2024/04/17 04:21:01;;;;;;;;;;;;;;;23.17;44.55;93422.16;5408850;26;9107;-61
2024/04/17 04:23:29;;;;;;;;;;;;;;;23.21;44.83;93437.06;5414301;26;7043;-60
2024/04/17 04:25:55;;;;;;;;;;;;;;;23.12;44.60;93426.44;5387753;26;7582;-59
2024/04/17 04:28:23;;;;;;;;;;;;;;;23.16;44.86;93443.34;5427986;26;7151;-59
2024/04/17 04:30:51;;;;;;;;;;;;;;;23.19;45.01;93450.56;5419191;26;7397;-59
2024/04/17 04:33:22;;;;;;;;;;;;;;;23.14;45.00;93440.38;5386255;26;7142;-59
2024/04/17 04:35:49;;;;;;;;;;;;;;;23.18;45.03;93448.34;5431596;26;7140;-59
2024/04/17 04:38:15;;;;;;;;;;;;;;;23.22;45.04;93451.53;5395918;26;7284;-59
2024/04/17 04:40:43;;;;;;;;;;;;;;;23.24;44.99;93457.97;5440774;26;7306;-59
2024/04/17 04:43:12;;;;;;;;;;;;;;;23.23;45.09;93458.47;5379391;26;9182;-59
2024/04/17 04:45:42;;;;;;;;;;;;;;;23.28;45.22;93457.69;5404725;26;8252;-58
2024/04/17 04:48:08;;;;;;;;;;;;;;;23.23;45.11;93459.22;5386543;26;8225;-59
2024/04/17 04:50:39;;;;;;;;;;;;;;;23.33;44.95;93464.34;5390934;26;7037;-59
2024/04/17 04:53:05;;;;;;;;;;;;;;;23.22;45.16;93446.78;5421159;26;7116;-59
2024/04/17 04:55:32;;;;;;;;;;;;;;;23.31;45.53;93458.66;5378493;26;7314;-59
2024/04/17 04:58:01;;;;;;;;;;;;;;;23.37;45.11;93459.34;5431200;26;7558;-61
2024/04/17 05:00:27;;;;;;;;;;;;;;;23.33;45.44;93459.66;5410507;26;7426;-60
2024/04/17 05:02:53;;;;;;;;;;;;;;;23.40;45.51;93455.56;5400493;26;7321;-61
2024/04/17 05:05:20;;;;;;;;;;;;;;;23.40;45.26;93452.84;5416367;26;9531;-60
2024/04/17 05:07:56;;;;;;;;;;;;;;;23.41;44.98;93459.78;5405866;26;7456;-58
2024/04/17 05:10:30;;;;;;;;;;;;;;;23.47;45.10;93463.94;5405111;26;7087;-58
2024/04/17 05:13:25;;;;;;;;;;;;;;;23.52;45.23;93459.66;5404810;26;7163;-58
2024/04/17 05:16:10;;;;;;;;;;;;;;;23.61;44.88;93459.28;5376911;26;7232;-58
2024/04/17 05:18:54;;;;;;;;;;;;;;;23.56;44.79;93451.84;5410930;26;7336;-58
2024/04/17 05:21:23;;;;;;;;;;;;;;;23.68;43.95;93464.94;5395355;26;7542;-59
2024/04/17 05:23:49;;;;;;;;;;;;;;;23.66;43.03;93461.94;5380544;26;7345;-59
2024/04/17 05:26:15;;;;;;;;;;;;;;;23.61;42.46;93462.03;5422153;26;9365;-60
2024/04/17 05:28:41;;;;;;;;;;;;;;;23.52;44.07;93443.19;5411686;26;7677;-59
2024/04/17 05:31:45;;;;;;;;;;;;;;;23.75;44.02;93464.31;5411617;26;7350;-60
2024/04/17 05:34:28;;;;;;;;;;;;;;;23.85;44.33;93464.69;5304446;27;7395;-59
2024/04/17 05:37:11;;;;;;;;;;;;;;;23.87;44.12;93459.41;5303426;26;9238;-59
2024/04/17 05:39:59;;;;;;;;;;;;;;;24.01;44.13;93466.47;5302965;27;7521;-60
2024/04/17 05:42:37;;;;;;;;;;;;;;;24.03;44.17;93463.19;5298092;27;8633;-60
2024/04/17 05:45:16;;;;;;;;;;;;;;;24.01;44.39;93455.47;5297775;27;7992;-60
2024/04/17 05:48:17;;;;;;;;;;;;;;;24.08;44.26;93465.84;5304048;27;7128;-60
2024/04/17 05:51:13;;;;;;;;;;;;;;;24.13;44.35;93470.53;5202140;27;7814;-60
2024/04/17 05:54:05;;;;;;;;;;;;;;;24.16;44.44;93477.00;5193602;27;7138;-60
2024/04/17 05:56:31;;;;;;;;;;;;;;;24.12;44.07;93451.84;5185512;27;9154;-59
2024/04/17 05:58:58;;;;;;;;;;;;;;;24.19;44.29;93462.94;5203310;27;7129;-60
2024/04/17 06:01:28;;;;;;;;;;;;;;;24.26;45.53;93467.81;5197342;27;7891;-60
2024/04/17 06:04:24;;;;;;;;;;;;;;;24.51;47.03;93485.66;5201698;27;6987;-59
2024/04/17 06:07:01;;;;;;;;;;;;;;;24.86;46.04;93487.31;5097485;28;7377;-60
2024/04/17 06:09:27;;;;;;;;;;;;;;;25.16;46.90;93489.78;5138345;27;7291;-60
2024/04/17 06:11:54;;;;;;;;;;;;;;;25.37;46.68;93482.38;5110425;27;7298;-60
2024/04/17 06:14:20;;;;;;;;;;;;;;;25.49;45.07;93480.88;5157734;27;7390;-60
2024/04/17 06:16:56;;;;;;;;;;;;;;;25.58;43.10;93472.19;5135942;27;7066;-60
2024/04/17 06:19:22;;;;;;;;;;;;;;;25.79;42.22;93491.53;5144549;27;7144;-60
2024/04/17 06:22:19;;;;;;;;;;;;;;;25.89;41.32;93500.81;5173417;27;7739;-60
2024/04/17 06:24:45;;;;;;;;;;;;;;;25.69;41.71;93477.47;5222489;27;7043;-60
2024/04/17 06:27:14;;;;;;;;;;;;;;;25.33;41.96;93479.19;5272161;27;7336;-60
2024/04/17 06:29:40;;;;;;;;;;;;;;;25.14;42.28;93492.34;5239271;27;7283;-60
2024/04/17 06:32:06;;;;;;;;;;;;;;;24.85;42.77;93474.09;5233580;27;8621;-60
2024/04/17 06:34:32;;;;;;;;;;;;;;;24.75;42.78;93478.53;5213030;27;7102;-60
2024/04/17 06:37:03;;;;;;;;;;;;;;;24.65;42.83;93476.16;5219522;27;7116;-60
2024/04/17 06:39:49;;;;;;;;;;;;;;;24.63;43.29;93486.97;5252484;27;7239;-60
2024/04/17 06:42:27;;;;;;;;;;;;;;;24.51;43.14;93471.91;5253096;26;7461;-60
2024/04/17 06:45:09;;;;;;;;;;;;;;;24.50;43.47;93473.19;5414581;26;7055;-60
2024/04/17 06:47:43;;;;;;;;;;;;;;;24.52;43.22;93483.66;5383697;26;7449;-60
2024/04/17 06:50:19;;;;;;;;;;;;;;;24.48;43.70;93483.97;5433004;26;7436;-61
2024/04/17 06:52:46;;;;;;;;;;;;;;;24.41;43.31;93481.06;5379456;26;7371;-60
2024/04/17 06:55:13;;;;;;;;;;;;;;;24.41;43.76;93476.31;5379368;26;7093;-60
2024/04/17 06:57:42;;;;;;;;;;;;;;;24.42;43.72;93482.56;5407638;26;7118;-60
2024/04/17 07:00:42;;;;;;;;;;;;;;;24.38;43.86;93482.13;5414565;26;7305;-60
2024/04/17 07:03:19;;;;;;;;;;;;;;;24.30;43.56;93478.50;5378859;26;7174;-60
2024/04/17 07:05:48;;;;;;;;;;;;;;;24.30;43.90;93484.75;5415315;26;7487;-60
2024/04/17 07:08:23;;;;;;;;;;;;;;;24.30;43.80;93481.25;5414185;26;7424;-60
2024/04/17 07:10:56;;;;;;;;;;;;;;;24.19;43.77;93473.19;5413912;26;7075;-60
2024/04/17 07:13:29;;;;;;;;;;;;;;;24.26;43.84;93487.06;5412870;26;9132;-60
2024/04/17 07:16:24;;;;;;;;;;;;;;;24.27;44.03;93496.78;5412721;26;8606;-61
2024/04/17 07:18:50;;;;;;;;;;;;;;;24.20;43.79;93482.91;5416622;26;7346;-60
2024/04/17 07:21:22;;;;;;;;;;;;;;;24.17;43.95;93486.69;5390752;26;7281;-60
2024/04/17 07:23:48;;;;;;;;;;;;;;;24.14;43.94;93482.28;5377119;26;7641;-60
2024/04/17 07:26:14;;;;;;;;;;;;;;;24.19;44.25;93487.66;5378557;26;7681;-60
2024/04/17 07:28:40;;;;;;;;;;;;;;;24.24;43.96;93489.59;5390275;26;7237;-60
2024/04/17 07:31:08;;;;;;;;;;;;;;;24.26;44.00;93500.81;5382184;26;7779;-60
2024/04/17 07:33:37;;;;;;;;;;;;;;;24.24;43.95;93484.09;5413237;26;7310;-60
2024/04/17 07:36:17;;;;;;;;;;;;;;;24.30;43.99;93495.00;5402644;26;7397;-60
2024/04/17 07:39:13;;;;;;;;;;;;;;;24.27;43.63;93485.06;5377917;26;7074;-60
2024/04/17 07:41:51;;;;;;;;;;;;;;;24.38;43.80;93493.84;5306152;27;7690;-60
2024/04/17 07:44:20;;;;;;;;;;;;;;;24.40;43.41;93485.81;5324945;26;7086;-60
2024/04/17 07:46:59;;;;;;;;;;;;;;;24.43;43.23;93486.78;5340318;26;8542;-60
2024/04/17 07:49:27;;;;;;;;;;;;;;;24.54;43.15;93492.84;5339382;26;7451;-60
2024/04/17 07:51:54;;;;;;;;;;;;;;;24.60;43.04;93501.75;5340252;26;7125;-60
2024/04/17 07:54:24;;;;;;;;;;;;;;;24.58;43.09;93484.28;5340690;26;7122;-60
2024/04/17 07:56:53;;;;;;;;;;;;;;;24.75;42.66;93501.25;5340228;26;7331;-60
2024/04/17 07:59:44;;;;;;;;;;;;;;;24.87;42.55;93504.56;5340345;26;7348;-61
2024/04/17 08:02:28;;;;;;;;;;;;;;;24.86;42.49;93498.31;5340240;26;7274;-62
2024/04/17 08:04:58;;;;;;;;;;;;;;;24.95;42.36;93497.16;5336497;26;7342;-60
2024/04/17 08:07:41;;;;;;;;;;;;;;;25.13;42.14;93512.84;5327248;26;7042;-60
2024/04/17 08:10:19;;;;;;;;;;;;;;;25.15;41.87;93496.56;5340302;26;8836;-61
2024/04/17 08:12:53;;;;;;;;;;;;;;;25.26;41.57;93499.09;5340187;26;7041;-60
2024/04/17 08:15:21;;;;;;;;;;;;;;;25.34;41.59;93506.19;5339600;26;7144;-61
2024/04/17 08:17:48;;;;;;;;;;;;;;;25.36;41.51;93500.88;5364939;26;7286;-60
2024/04/17 08:20:33;;;;;;;;;;;;;;;25.39;41.14;93497.06;5390844;26;7513;-60
2024/04/17 08:23:16;;;;;;;;;;;;;;;25.46;41.40;93495.72;5412357;26;8464;-60
2024/04/17 08:25:47;;;;;;;;;;;;;;;25.47;41.26;93502.69;5413148;26;7279;-60
2024/04/17 08:28:13;;;;;;;;;;;;;;;25.54;41.00;93501.31;5382129;26;7074;-60
2024/04/17 08:30:39;;;;;;;;;;;;;;;25.54;40.90;93502.06;5413200;26;7227;-60
2024/04/17 08:33:05;;;;;;;;;;;;;;;25.52;41.00;93499.09;5411150;26;9981;-59
2024/04/17 08:35:40;;;;;;;;;;;;;;;25.59;40.77;93522.50;5407688;26;9564;-60
2024/04/17 08:38:20;;;;;;;;;;;;;;;25.58;40.88;93524.50;5382149;26;7353;-61
2024/04/17 08:41:27;;;;;;;;;;;;;;;25.62;40.73;93526.94;5360405;26;7427;-61
2024/04/17 08:44:00;;;;;;;;;;;;;;;25.63;40.66;93528.41;5398275;26;7488;-60
2024/04/17 08:46:28;;;;;;;;;;;;;;;25.59;40.60;93522.50;5412958;26;7384;-60
2024/04/17 08:49:31;;;;;;;;;;;;;;;25.68;40.69;93542.09;5398934;26;8297;-60
2024/04/17 08:52:04;;;;;;;;;;;;;;;25.69;40.81;93545.56;5412787;26;7323;-60
2024/04/17 08:54:48;;;;;;;;;;;;;;;25.64;40.51;93538.91;5412363;26;7044;-60
2024/04/17 08:57:23;;;;;;;;;;;;;;;25.60;40.55;93544.00;5412747;26;7135;-60
2024/04/17 08:59:50;;;;;;;;;;;;;;;25.69;40.87;93560.09;5412992;26;7914;-60
2024/04/17 09:02:26;;;;;;;;;;;;;;;25.69;40.70;93559.34;5410379;26;6993;-60
2024/04/17 09:05:04;;;;;;;;;;;;;;;25.67;40.55;93559.13;5412385;26;7390;-60
2024/04/17 09:08:16;;;;;;;;;;;;;;;25.68;40.66;93566.88;5346526;26;7421;-60
2024/04/17 09:10:54;;;;;;;;;;;;;;;25.61;40.17;93562.00;5270181;27;7376;-60
2024/04/17 09:13:54;;;;;;;;;;;;;;;25.67;40.62;93578.41;5280764;27;7075;-60
2024/04/17 09:16:27;;;;;;;;;;;;;;;25.64;40.66;93571.22;5302749;26;7426;-60
2024/04/17 09:19:12;;;;;;;;;;;;;;;25.64;40.42;93580.22;5275629;27;7519;-60
2024/04/17 09:21:42;;;;;;;;;;;;;;;25.60;40.55;93571.53;5304880;27;7175;-60
2024/04/17 09:24:08;;;;;;;;;;;;;;;25.61;40.42;93581.28;5304704;27;7148;-60
2024/04/17 09:26:35;;;;;;;;;;;;;;;25.58;40.63;93579.56;5302869;27;9745;-60
2024/04/17 09:29:01;;;;;;;;;;;;;;;25.57;41.10;93580.88;5303985;27;7099;-61
2024/04/17 09:31:28;;;;;;;;;;;;;;;25.56;40.83;93571.09;5304425;27;7316;-60
2024/04/17 09:33:56;;;;;;;;;;;;;;;25.55;40.71;93577.16;5315583;26;6983;-60
2024/04/17 09:36:24;;;;;;;;;;;;;;;25.52;40.76;93578.19;5306885;26;7999;-60
2024/04/17 09:38:53;;;;;;;;;;;;;;;25.50;40.34;93581.50;5301992;27;7264;-61
2024/04/17 09:41:23;;;;;;;;;;;;;;;25.47;40.51;93579.78;5273598;27;8791;-60
2024/04/17 09:43:58;;;;;;;;;;;;;;;25.45;40.78;93573.34;5283946;27;7095;-65
2024/04/17 09:46:30;;;;;;;;;;;;;;;25.43;41.01;93576.63;5302655;26;7748;-65
2024/04/17 09:48:58;;;;;;;;;;;;;;;25.46;40.85;93583.81;5409806;26;7058;-65
2024/04/17 09:51:26;;;;;;;;;;;;;;;25.40;40.72;93577.66;5378148;26;7094;-65
2024/04/17 09:54:10;;;;;;;;;;;;;;;25.41;40.62;93590.88;5408705;26;7088;-65
2024/04/17 09:57:03;;;;;;;;;;;;;;;25.46;40.81;93596.84;5377313;26;7354;-65
2024/04/17 09:59:34;;;;;;;;;;;;;;;25.40;40.65;93588.66;5407916;26;7329;-65
2024/04/17 10:02:23;;;;;;;;;;;;;;;25.39;40.69;93596.19;5419711;26;7141;-65
2024/04/17 10:04:54;;;;;;;;;;;;;;;25.43;41.02;93601.38;5439078;26;7280;-65
2024/04/17 10:07:38;;;;;;;;;;;;;;;25.40;40.90;93594.91;5414709;26;7039;-65
2024/04/17 10:10:24;;;;;;;;;;;;;;;25.39;40.79;93590.69;5435587;26;8386;-65
2024/04/17 10:13:08;;;;;;;;;;;;;;;25.44;41.41;93594.63;5414833;26;7244;-65
2024/04/17 10:15:34;;;;;;;;;;;;;;;25.37;41.19;93589.72;5410959;26;7082;-66
2024/04/17 10:18:06;;;;;;;;;;;;;;;25.36;41.33;93588.22;5404074;26;7026;-64
2024/04/17 10:20:32;;;;;;;;;;;;;;;25.34;41.44;93597.00;5379521;26;8175;-65
2024/04/17 10:23:07;;;;;;;;;;;;;;;25.33;41.24;93592.03;5413701;26;9617;-65
2024/04/17 10:25:33;;;;;;;;;;;;;;;25.36;41.64;93594.47;5414070;26;7069;-65
2024/04/17 10:28:15;;;;;;;;;;;;;;;25.37;41.40;93597.97;5414856;26;8599;-65
2024/04/17 10:30:44;;;;;;;;;;;;;;;25.35;41.36;93595.75;5414040;26;7576;-65
2024/04/17 10:33:28;;;;;;;;;;;;;;;25.34;41.24;93591.50;5383471;26;7438;-65
2024/04/17 10:35:56;;;;;;;;;;;;;;;25.34;41.33;93597.00;5391768;26;7231;-65
2024/04/17 10:38:26;;;;;;;;;;;;;;;25.34;41.33;93594.25;5431964;26;8930;-65
2024/04/17 10:40:56;;;;;;;;;;;;;;;25.34;41.40;93601.78;5414028;26;8650;-65
2024/04/17 10:43:32;;;;;;;;;;;;;;;25.33;41.68;93603.06;5414111;26;7056;-65
2024/04/17 10:46:23;;;;;;;;;;;;;;;25.34;41.64;93596.25;5414716;26;7073;-67
2024/04/17 10:48:59;;;;;;;;;;;;;;;25.22;41.90;93579.22;5413958;26;7278;-65
2024/04/17 10:51:55;;;;;;;;;;;;;;;25.30;41.71;93595.84;5378100;26;6961;-66
2024/04/17 10:54:41;;;;;;;;;;;;;;;25.31;41.54;93598.09;5306061;27;7608;-57
2024/04/17 10:57:16;;;;;;;;;;;;;;;25.32;41.42;93598.81;5306528;27;7333;-57
2024/04/17 10:59:51;;;;;;;;;;;;;;;25.25;41.73;93588.44;5306434;27;7172;-57
2024/04/17 11:02:18;;;;;;;;;;;;;;;25.21;41.73;93582.50;5316703;26;7395;-57
2024/04/17 11:04:54;;;;;;;;;;;;;;;25.24;41.84;93601.47;5277861;27;9049;-57
2024/04/17 11:07:21;;;;;;;;;;;;;;;25.21;41.96;93597.00;5270889;27;6961;-57
2024/04/17 11:09:56;;;;;;;;;;;;;;;25.25;41.95;93602.22;5287180;27;7302;-57
2024/04/17 11:12:22;;;;;;;;;;;;;;;25.27;41.89;93603.13;5306761;27;7089;-57
2024/04/17 11:15:10;;;;;;;;;;;;;;;25.15;41.92;93590.84;5306221;27;6977;-57
2024/04/17 11:17:53;;;;;;;;;;;;;;;25.27;41.92;93605.16;5299269;26;9546;-57
2024/04/17 11:20:21;;;;;;;;;;;;;;;25.23;41.89;93605.47;5304864;27;7109;-57
2024/04/17 11:22:50;;;;;;;;;;;;;;;25.17;41.87;93593.81;5302028;27;8127;-58
2024/04/17 11:25:16;;;;;;;;;;;;;;;25.17;42.23;93598.56;5272524;27;6974;-57
2024/04/17 11:27:45;;;;;;;;;;;;;;;25.23;42.00;93607.47;5273671;27;9558;-57
2024/04/17 11:30:18;;;;;;;;;;;;;;;25.13;42.01;93587.16;5288360;26;9583;-56
2024/04/17 11:32:47;;;;;;;;;;;;;;;25.22;42.00;93597.75;5403088;26;9551;-57
2024/04/17 11:35:20;;;;;;;;;;;;;;;25.23;42.03;93607.47;5396946;26;7092;-57
2024/04/17 11:38:09;;;;;;;;;;;;;;;25.22;41.92;93603.25;5388090;26;7187;-57
2024/04/17 11:40:36;;;;;;;;;;;;;;;25.18;41.47;93595.31;5432975;26;7089;-58
2024/04/17 11:43:36;;;;;;;;;;;;;;;25.19;41.86;93599.53;5424521;26;7336;-57
2024/04/17 11:46:17;;;;;;;;;;;;;;;25.19;41.85;93598.78;5413093;26;8062;-57
2024/04/17 11:48:46;;;;;;;;;;;;;;;25.13;41.88;93598.91;5413668;26;7409;-57
2024/04/17 11:51:22;;;;;;;;;;;;;;;25.03;41.97;93591.56;5413690;26;7058;-57
2024/04/17 11:53:57;;;;;;;;;;;;;;;24.92;41.93;93591.75;5441654;26;7038;-57
2024/04/17 11:56:36;;;;;;;;;;;;;;;24.89;42.34;93595.56;5431712;26;7086;-57
2024/04/17 11:59:18;;;;;;;;;;;;;;;24.76;42.34;93601.75;5421857;26;7220;-57
2024/04/17 12:01:55;;;;;;;;;;;;;;;24.67;42.69;93602.88;5373104;26;7532;-58
2024/04/17 12:04:27;;;;;;;;;;;;;;;24.54;42.71;93593.81;5424410;26;7061;-57
2024/04/17 12:07:18;;;;;;;;;;;;;;;24.48;42.79;93593.91;5429140;26;8751;-57
2024/04/17 12:10:07;;;;;;;;;;;;;;;24.27;43.10;93587.47;5413423;26;7538;-58
2024/04/17 12:12:44;;;;;;;;;;;;;;;24.25;43.64;93603.00;5355471;26;7119;-57
2024/04/17 12:15:11;;;;;;;;;;;;;;;24.15;43.75;93601.88;5407518;26;7413;-57
2024/04/17 12:17:44;;;;;;;;;;;;;;;23.98;43.62;93599.31;5414564;26;7315;-57
2024/04/17 12:20:57;;;;;;;;;;;;;;;23.91;43.95;93602.66;5427233;26;7315;-57
2024/04/17 12:23:25;;;;;;;;;;;;;;;23.78;44.60;93597.81;5298579;27;7998;-57
2024/04/17 12:28:36;;;;;;;;;;;;;;;23.55;44.86;93582.88;5304869;27;9510;-57
2024/04/17 12:31:02;;;;;;;;;;;;;;;23.54;45.38;93595.09;5306012;27;7357;-57
2024/04/17 12:33:29;;;;;;;;;;;;;;;23.48;45.12;93582.69;5304819;27;7062;-57
2024/04/17 12:35:58;;;;;;;;;;;;;;;23.49;45.65;93592.44;5304914;27;7748;-57
2024/04/17 12:38:26;;;;;;;;;;;;;;;23.44;45.20;93595.97;5302470;27;7003;-57
2024/04/17 12:41:06;;;;;;;;;;;;;;;23.39;45.55;93597.50;5289841;27;7999;-57
2024/04/17 12:43:38;;;;;;;;;;;;;;;23.31;45.68;93593.84;5304296;27;7926;-58
2024/04/17 12:46:15;;;;;;;;;;;;;;;23.31;45.53;93593.09;5317516;26;7329;-57
2024/04/17 12:48:41;;;;;;;;;;;;;;;23.32;46.00;93606.28;5303938;27;9368;-58
2024/04/17 12:51:52;;;;;;;;;;;;;;;23.34;45.86;93620.25;5274634;27;6973;-57
2024/04/17 12:54:18;;;;;;;;;;;;;;;23.23;45.79;93612.09;5305409;27;7294;-57
2024/04/17 12:56:45;;;;;;;;;;;;;;;23.23;45.74;93612.84;5304922;27;7167;-57
2024/04/17 12:59:20;;;;;;;;;;;;;;;23.30;45.65;93624.50;5311593;26;9226;-57
2024/04/17 13:01:48;;;;;;;;;;;;;;;23.14;45.56;93596.72;5412446;26;7399;-58
2024/04/17 13:04:20;;;;;;;;;;;;;;;23.21;45.54;93615.38;5414918;26;8139;-57
2024/04/17 13:06:52;;;;;;;;;;;;;;;23.18;45.92;93608.16;5377216;26;9475;-57
2024/04/17 13:09:40;;;;;;;;;;;;;;;23.21;45.67;93611.88;5405382;26;6993;-57
2024/04/17 13:12:19;;;;;;;;;;;;;;;23.19;45.60;93604.16;5390583;26;7235;-57
2024/04/17 13:14:52;;;;;;;;;;;;;;;23.15;45.66;93598.22;5412649;26;7359;-61
2024/04/17 13:17:28;;;;;;;;;;;;;;;23.14;46.23;93596.72;5436244;26;7217;-61
2024/04/17 13:19:57;;;;;;;;;;;;;;;23.05;45.64;93591.56;5405171;26;9040;-61
2024/04/17 13:22:33;;;;;;;;;;;;;;;23.04;45.94;93595.59;5376918;26;8142;-61
2024/04/17 13:25:16;;;;;;;;;;;;;;;23.07;46.11;93602.81;5377202;26;7336;-61
2024/04/17 13:27:44;;;;;;;;;;;;;;;23.06;46.06;93590.34;5371521;26;7249;-61
2024/04/17 13:30:10;;;;;;;;;;;;;;;23.01;45.55;93591.13;5415652;26;7061;-61
2024/04/17 13:32:37;;;;;;;;;;;;;;;23.10;45.92;93601.00;5437314;26;7056;-61
2024/04/17 13:35:21;;;;;;;;;;;;;;;23.07;45.82;93588.34;5412177;26;7032;-61
2024/04/17 13:37:54;;;;;;;;;;;;;;;23.10;45.57;93584.56;5410759;26;9129;-61
2024/04/17 13:40:21;;;;;;;;;;;;;;;23.18;45.64;93588.97;5440383;26;9143;-61